Time;durP1;ratioP1;P1;durP2;ratioP2;P2;SDS_P1;SDS_P2;PMS_P1;PMS_P2;Temp;Humidity;BMP_temperature;BMP_pressure;BME280_temperature;BME280_humidity;BME280_pressure;Samples;Min_cycle;Max_cycle;Signal;HPM_P1;HPM_P2
2022/01/09 00:00:12;;;;;;;;;;;;;;;;;;5087404;28;20367;-87
2022/01/09 00:02:37;;;;;;;;;;;;;;;;;;5094202;28;19916;-89
2022/01/09 00:05:03;;;;;;;;;;;;;;;;;;5093462;28;19924;-89
2022/01/09 00:07:29;;;;;;;;;;;;;;;;;;5092875;28;20007;-85
2022/01/09 00:09:56;;;;;;;;;;;;;;;;;;5093206;28;19934;-85
2022/01/09 00:12:22;;;;;;;;;;;;;;;;;;5084901;28;20014;-88
2022/01/09 00:14:47;;;;;;;;;;;;;;;;;;5094181;28;20399;-87
2022/01/09 00:17:12;;;;;;;;;;;;;;;;;;5093525;28;20010;-87
2022/01/09 00:19:38;;;;;;;;;;;;;;;;;;5094074;28;20028;-87
2022/01/09 00:22:03;;;;;;;;;;;;;;;;;;5093943;28;19926;-88
2022/01/09 00:24:29;;;;;;;;;;;;;;;;;;5091602;28;20437;-87
2022/01/09 00:26:54;;;;;;;;;;;;;;;;;;5092746;28;19916;-84
2022/01/09 00:29:20;;;;;;;;;;;;;;;;;;5093853;28;19951;-84
2022/01/09 00:31:45;;;;;;;;;;;;;;;;;;5093874;28;19916;-84
2022/01/09 00:34:10;;;;;;;;;;;;;;;;;;5093923;28;19916;-85
2022/01/09 00:36:36;;;;;;;;;;;;;;;;;;5093757;28;19927;-84
2022/01/09 00:39:02;;;;;;;;;;;;;;;;;;5094139;28;20002;-87
2022/01/09 00:41:27;;;;;;;;;;;;;;;;;;5093740;28;19915;-87
2022/01/09 00:43:53;;;;;;;;;;;;;;;;;;5093745;28;19985;-87
2022/01/09 00:46:18;;;;;;;;;;;;;;;;;;5093762;28;19916;-86
2022/01/09 00:48:43;;;;;;;;;;;;;;;;;;5093815;28;20398;-86
2022/01/09 00:51:09;;;;;;;;;;;;;;;;;;5093446;28;19920;-87
2022/01/09 00:53:34;;;;;;;;;;;;;;;;;;5093603;28;19917;-85
2022/01/09 00:56:00;;;;;;;;;;;;;;;;;;5093332;28;19923;-83
2022/01/09 00:58:25;;;;;;;;;;;;;;;;;;5093602;28;19993;-85
2022/01/09 01:00:51;;;;;;;;;;;;;;;;;;5093545;28;19920;-89
2022/01/09 01:03:16;;;;;;;;;;;;;;;;;;5092943;28;20043;-87
2022/01/09 01:05:44;;;;;;;;;;;;;;;;;;5091140;28;20284;-83
2022/01/09 01:08:09;;;;;;;;;;;;;;;;;;5091082;28;19920;-86
2022/01/09 01:10:34;;;;;;;;;;;;;;;;;;5093464;28;20283;-85
2022/01/09 01:13:00;;;;;;;;;;;;;;;;;;5093463;28;20371;-87
2022/01/09 01:15:25;;;;;;;;;;;;;;;;;;5093444;28;20040;-86
2022/01/09 01:17:51;;;;;;;;;;;;;;;;;;5093268;28;19924;-88
2022/01/09 01:20:21;;;;;;;;;;;;;;;;;;5093359;28;19966;-87
2022/01/09 01:22:46;;;;;;;;;;;;;;;;;;5093588;28;19920;-86
2022/01/09 01:25:12;;;;;;;;;;;;;;;;;;5093409;28;20364;-87
2022/01/09 01:27:37;;;;;;;;;;;;;;;;;;5075276;28;20069;-88
2022/01/09 01:30:04;;;;;;;;;;;;;;;;;;5093077;28;19943;-88
2022/01/09 01:32:29;;;;;;;;;;;;;;;;;;5093439;28;19924;-84
2022/01/09 01:34:55;;;;;;;;;;;;;;;;;;5093403;28;19920;-87
2022/01/09 01:37:20;;;;;;;;;;;;;;;;;;5095789;28;19970;-87
2022/01/09 01:39:45;;;;;;;;;;;;;;;;;;5097095;28;19927;-86
2022/01/09 01:42:11;;;;;;;;;;;;;;;;;;5097086;28;20007;-87
2022/01/09 01:44:46;;;;;;;;;;;;;;;;;;5097179;28;19920;-88
2022/01/09 01:47:16;;;;;;;;;;;;;;;;;;5097165;28;19999;-88
2022/01/09 01:49:41;;;;;;;;;;;;;;;;;;5097220;28;20021;-89
2022/01/09 01:52:07;;;;;;;;;;;;;;;;;;5096699;28;19924;-89
2022/01/09 01:54:33;;;;;;;;;;;;;;;;;;5096972;28;19960;-88
2022/01/09 01:56:59;;;;;;;;;;;;;;;;;;5096759;28;19966;-89
2022/01/09 01:59:24;;;;;;;;;;;;;;;;;;5096598;28;19927;-88
2022/01/09 02:01:50;;;;;;;;;;;;;;;;;;5096480;28;20398;-88
2022/01/09 02:04:15;;;;;;;;;;;;;;;;;;5096617;28;19920;-85
2022/01/09 02:06:41;;;;;;;;;;;;;;;;;;5096723;28;19939;-88
2022/01/09 02:09:06;;;;;;;;;;;;;;;;;;5096476;28;19920;-86
2022/01/09 02:11:32;;;;;;;;;;;;;;;;;;5096678;28;19916;-83
2022/01/09 02:13:58;;;;;;;;;;;;;;;;;;5096309;28;19923;-88
2022/01/09 02:16:23;;;;;;;;;;;;;;;;;;5096647;28;19916;-88
2022/01/09 02:18:49;;;;;;;;;;;;;;;;;;5096516;28;19916;-85
2022/01/09 02:21:15;;;;;;;;;;;;;;;;;;5096265;28;19916;-87
2022/01/09 02:23:44;;;;;;;;;;;;;;;;;;5096176;28;20379;-88
2022/01/09 02:26:10;;;;;;;;;;;;;;;;;;5096318;28;19938;-88
2022/01/09 02:28:36;;;;;;;;;;;;;;;;;;5096054;28;20540;-86
2022/01/09 02:31:01;;;;;;;;;;;;;;;;;;5096354;28;19916;-87
2022/01/09 02:33:27;;;;;;;;;;;;;;;;;;5096186;28;19921;-87
2022/01/09 02:35:52;;;;;;;;;;;;;;;;;;5093714;28;19916;-86
2022/01/09 02:38:18;;;;;;;;;;;;;;;;;;5093913;28;19927;-88
2022/01/09 02:40:48;;;;;;;;;;;;;;;;;;5092394;28;20470;-88
2022/01/09 02:43:14;;;;;;;;;;;;;;;;;;5092528;28;19920;-88
2022/01/09 02:45:40;;;;;;;;;;;;;;;;;;5093138;28;19985;-87
2022/01/09 02:48:05;;;;;;;;;;;;;;;;;;5091383;28;19924;-86
2022/01/09 02:50:41;;;;;;;;;;;;;;;;;;5092919;28;19920;-89
2022/01/09 02:53:17;;;;;;;;;;;;;;;;;;5093609;28;20014;-87
2022/01/09 02:55:42;;;;;;;;;;;;;;;;;;5090681;28;19920;-89
2022/01/09 02:58:08;;;;;;;;;;;;;;;;;;5095480;28;19943;-89
2022/01/09 03:00:35;;;;;;;;;;;;;;;;;;5095557;28;19920;-86
2022/01/09 03:03:01;;;;;;;;;;;;;;;;;;5095557;28;20395;-88
2022/01/09 03:05:27;;;;;;;;;;;;;;;;;;5095634;28;19920;-88
2022/01/09 03:07:52;;;;;;;;;;;;;;;;;;5095317;28;19912;-88
2022/01/09 03:10:18;;;;;;;;;;;;;;;;;;5095724;28;19916;-89
2022/01/09 03:12:44;;;;;;;;;;;;;;;;;;5095575;28;20261;-89
2022/01/09 03:15:10;;;;;;;;;;;;;;;;;;5079323;28;20006;-88
2022/01/09 03:17:36;;;;;;;;;;;;;;;;;;5095292;28;19923;-86
2022/01/09 03:20:02;;;;;;;;;;;;;;;;;;5094990;28;19918;-86
2022/01/09 03:22:28;;;;;;;;;;;;;;;;;;5095081;28;20366;-89
2022/01/09 03:24:53;;;;;;;;;;;;;;;;;;5092971;28;19959;-88
2022/01/09 03:27:19;;;;;;;;;;;;;;;;;;5080803;28;20010;-87
2022/01/09 03:29:44;;;;;;;;;;;;;;;;;;5095040;28;19924;-84
2022/01/09 03:32:10;;;;;;;;;;;;;;;;;;5094987;28;19963;-88
2022/01/09 03:34:35;;;;;;;;;;;;;;;;;;5094995;28;19959;-87
2022/01/09 03:37:01;;;;;;;;;;;;;;;;;;5094891;28;19969;-88
2022/01/09 03:39:26;;;;;;;;;;;;;;;;;;5094858;28;19920;-84
2022/01/09 03:41:54;;;;;;;;;;;;;;;;;;5094706;28;19924;-88
2022/01/09 03:44:20;;;;;;;;;;;;;;;;;;5094689;28;19917;-88
2022/01/09 03:46:45;;;;;;;;;;;;;;;;;;5094628;28;19923;-87
2022/01/09 03:49:11;;;;;;;;;;;;;;;;;;5094618;28;20001;-87
2022/01/09 03:51:38;;;;;;;;;;;;;;;;;;5094672;28;19974;-86
2022/01/09 03:54:04;;;;;;;;;;;;;;;;;;5094426;28;19927;-87
2022/01/09 03:56:29;;;;;;;;;;;;;;;;;;5094593;28;19923;-87
2022/01/09 03:58:55;;;;;;;;;;;;;;;;;;5094016;28;20315;-88
2022/01/09 04:01:20;;;;;;;;;;;;;;;;;;5094501;28;19947;-88
2022/01/09 04:03:46;;;;;;;;;;;;;;;;;;5094471;28;19977;-87
2022/01/09 04:06:11;;;;;;;;;;;;;;;;;;5094215;28;19999;-87
2022/01/09 04:08:38;;;;;;;;;;;;;;;;;;5094413;28;19926;-87
2022/01/09 04:11:04;;;;;;;;;;;;;;;;;;5094317;28;19916;-86
2022/01/09 04:13:30;;;;;;;;;;;;;;;;;;5094387;28;19923;-87
2022/01/09 04:15:55;;;;;;;;;;;;;;;;;;5093777;28;19923;-84
2022/01/09 04:18:21;;;;;;;;;;;;;;;;;;5094295;28;20295;-88
2022/01/09 04:20:47;;;;;;;;;;;;;;;;;;5094140;28;19924;-88
2022/01/09 04:23:13;;;;;;;;;;;;;;;;;;5094019;28;20391;-88
2022/01/09 04:25:42;;;;;;;;;;;;;;;;;;5094118;28;20316;-89
2022/01/09 04:28:07;;;;;;;;;;;;;;;;;;5093937;28;20427;-88
2022/01/09 04:30:33;;;;;;;;;;;;;;;;;;5093945;28;20011;-89
2022/01/09 04:32:58;;;;;;;;;;;;;;;;;;5094062;28;19923;-85
2022/01/09 04:35:24;;;;;;;;;;;;;;;;;;5093805;28;19912;-89
2022/01/09 04:37:49;;;;;;;;;;;;;;;;;;5093887;28;19923;-88
2022/01/09 04:40:17;;;;;;;;;;;;;;;;;;5093913;28;20378;-86
2022/01/09 04:42:46;;;;;;;;;;;;;;;;;;5093717;28;19970;-86
2022/01/09 04:45:13;;;;;;;;;;;;;;;;;;5093750;28;19920;-88
2022/01/09 04:47:44;;;;;;;;;;;;;;;;;;5093797;28;19916;-87
2022/01/09 04:50:15;;;;;;;;;;;;;;;;;;5093684;28;19939;-88
2022/01/09 04:52:41;;;;;;;;;;;;;;;;;;5093651;28;19917;-88
2022/01/09 04:55:07;;;;;;;;;;;;;;;;;;5093607;28;19920;-83
2022/01/09 04:57:32;;;;;;;;;;;;;;;;;;5093658;28;20006;-87
2022/01/09 04:59:57;;;;;;;;;;;;;;;;;;5075247;28;19927;-87
2022/01/09 05:02:23;;;;;;;;;;;;;;;;;;5093753;28;19924;-88
2022/01/09 05:04:48;;;;;;;;;;;;;;;;;;5093524;28;19920;-88
2022/01/09 05:07:14;;;;;;;;;;;;;;;;;;5093594;28;19965;-87
2022/01/09 05:09:39;;;;;;;;;;;;;;;;;;5093689;28;19927;-89
2022/01/09 05:12:05;;;;;;;;;;;;;;;;;;5077388;28;19997;-88
2022/01/09 05:14:30;;;;;;;;;;;;;;;;;;5085129;28;20384;-89
2022/01/09 05:16:56;;;;;;;;;;;;;;;;;;5077352;28;19927;-88
2022/01/09 05:19:28;;;;;;;;;;;;;;;;;;5077359;28;19916;-84
2022/01/09 05:21:54;;;;;;;;;;;;;;;;;;5086861;28;19923;-88
2022/01/09 05:24:19;;;;;;;;;;;;;;;;;;5097346;28;19916;-88
2022/01/09 05:26:45;;;;;;;;;;;;;;;;;;5097447;28;19937;-87
2022/01/09 05:29:10;;;;;;;;;;;;;;;;;;5097420;28;19923;-87
2022/01/09 05:31:36;;;;;;;;;;;;;;;;;;5097376;28;19916;-89
2022/01/09 05:34:02;;;;;;;;;;;;;;;;;;5097036;28;19946;-83
2022/01/09 05:36:27;;;;;;;;;;;;;;;;;;5097382;28;19943;-86
2022/01/09 05:38:52;;;;;;;;;;;;;;;;;;5097599;28;19919;-87
2022/01/09 05:41:18;;;;;;;;;;;;;;;;;;5097365;28;20275;-84
2022/01/09 05:43:43;;;;;;;;;;;;;;;;;;5097034;28;20379;-88
2022/01/09 05:46:10;;;;;;;;;;;;;;;;;;5096928;28;19989;-85
2022/01/09 05:48:36;;;;;;;;;;;;;;;;;;5096670;28;19923;-87
2022/01/09 05:51:01;;;;;;;;;;;;;;;;;;5097232;28;19924;-86
2022/01/09 05:53:27;;;;;;;;;;;;;;;;;;5102033;28;20307;-86
2022/01/09 05:55:52;;;;;;;;;;;;;;;;;;5097130;28;19995;-87
2022/01/09 05:58:18;;;;;;;;;;;;;;;;;;5096601;28;20348;-87
2022/01/09 06:00:43;;;;;;;;;;;;;;;;;;5096613;28;20014;-86
2022/01/09 06:03:08;;;;;;;;;;;;;;;;;;5096607;28;19916;-87
2022/01/09 06:05:34;;;;;;;;;;;;;;;;;;5096679;28;20015;-86
2022/01/09 06:07:59;;;;;;;;;;;;;;;;;;5096433;28;19916;-87
2022/01/09 06:10:25;;;;;;;;;;;;;;;;;;5078451;28;19923;-86
2022/01/09 06:12:50;;;;;;;;;;;;;;;;;;5096602;28;19916;-85
2022/01/09 06:15:16;;;;;;;;;;;;;;;;;;5096506;28;19977;-85
2022/01/09 06:17:42;;;;;;;;;;;;;;;;;;5096543;28;20002;-85
2022/01/09 06:20:08;;;;;;;;;;;;;;;;;;5096181;28;19924;-85
2022/01/09 06:22:33;;;;;;;;;;;;;;;;;;5096619;28;20283;-86
2022/01/09 06:24:59;;;;;;;;;;;;;;;;;;5096525;28;19916;-86
2022/01/09 06:27:24;;;;;;;;;;;;;;;;;;5096460;28;19923;-89
2022/01/09 06:29:50;;;;;;;;;;;;;;;;;;5077835;28;19916;-86
2022/01/09 06:32:15;;;;;;;;;;;;;;;;;;5096052;28;19916;-87
2022/01/09 06:34:41;;;;;;;;;;;;;;;;;;5096359;28;20291;-84
2022/01/09 06:37:07;;;;;;;;;;;;;;;;;;5096080;28;19920;-85
2022/01/09 06:39:32;;;;;;;;;;;;;;;;;;5095997;28;19916;-86
2022/01/09 06:41:57;;;;;;;;;;;;;;;;;;5095853;28;19916;-84
2022/01/09 06:44:23;;;;;;;;;;;;;;;;;;5095956;28;20004;-83
2022/01/09 06:46:48;;;;;;;;;;;;;;;;;;5095759;28;19952;-84
2022/01/09 06:49:14;;;;;;;;;;;;;;;;;;5096033;28;19959;-83
2022/01/09 06:51:39;;;;;;;;;;;;;;;;;;5095791;28;19977;-85
2022/01/09 06:54:05;;;;;;;;;;;;;;;;;;5095636;28;19966;-85
2022/01/09 06:56:30;;;;;;;;;;;;;;;;;;5095659;28;20385;-83
2022/01/09 06:58:55;;;;;;;;;;;;;;;;;;5077238;28;19924;-82
2022/01/09 07:01:21;;;;;;;;;;;;;;;;;;5092793;28;19920;-84
2022/01/09 07:03:46;;;;;;;;;;;;;;;;;;5057486;28;19921;-84
2022/01/09 07:06:12;;;;;;;;;;;;;;;;;;5083619;28;19928;-84
2022/01/09 07:08:38;;;;;;;;;;;;;;;;;;5086045;28;19924;-85
2022/01/09 07:11:04;;;;;;;;;;;;;;;;;;5084559;28;19924;-86
2022/01/09 07:13:29;;;;;;;;;;;;;;;;;;5089450;28;19928;-84
2022/01/09 07:15:55;;;;;;;;;;;;;;;;;;5074306;28;20318;-85
2022/01/09 07:18:20;;;;;;;;;;;;;;;;;;5089722;28;19928;-84
2022/01/09 07:20:46;;;;;;;;;;;;;;;;;;5091563;28;19930;-84
2022/01/09 07:23:11;;;;;;;;;;;;;;;;;;5089634;28;19920;-86
2022/01/09 07:25:37;;;;;;;;;;;;;;;;;;5088067;28;20013;-85
2022/01/09 07:28:02;;;;;;;;;;;;;;;;;;5088824;28;20015;-85
2022/01/09 07:30:28;;;;;;;;;;;;;;;;;;5093886;28;20418;-85
2022/01/09 07:32:54;;;;;;;;;;;;;;;;;;5084487;28;19924;-86
2022/01/09 07:35:20;;;;;;;;;;;;;;;;;;5085840;28;19962;-87
2022/01/09 07:37:45;;;;;;;;;;;;;;;;;;5085107;28;19928;-86
2022/01/09 07:40:11;;;;;;;;;;;;;;;;;;5091745;28;20384;-86
2022/01/09 07:42:37;;;;;;;;;;;;;;;;;;5085540;28;20281;-85
2022/01/09 07:45:06;;;;;;;;;;;;;;;;;;5081010;28;19924;-86
2022/01/09 07:47:32;;;;;;;;;;;;;;;;;;5083172;28;19973;-87
2022/01/09 07:49:57;;;;;;;;;;;;;;;;;;5082026;28;19929;-86
2022/01/09 07:52:23;;;;;;;;;;;;;;;;;;5064889;28;19936;-86
2022/01/09 07:54:48;;;;;;;;;;;;;;;;;;5088044;28;19924;-85
2022/01/09 07:57:13;;;;;;;;;;;;;;;;;;5094368;28;19916;-83
2022/01/09 07:59:39;;;;;;;;;;;;;;;;;;5090719;28;19927;-83
2022/01/09 08:02:04;;;;;;;;;;;;;;;;;;5079092;28;19925;-83
2022/01/09 08:04:30;;;;;;;;;;;;;;;;;;5079192;28;20333;-84
2022/01/09 08:06:55;;;;;;;;;;;;;;;;;;5081239;28;20014;-87
2022/01/09 08:09:21;;;;;;;;;;;;;;;;;;5082866;28;19925;-85
2022/01/09 08:11:46;;;;;;;;;;;;;;;;;;5085161;28;19928;-84
2022/01/09 08:14:11;;;;;;;;;;;;;;;;;;5079885;28;20002;-84
2022/01/09 08:16:37;;;;;;;;;;;;;;;;;;5092986;28;19916;-85
2022/01/09 08:19:02;;;;;;;;;;;;;;;;;;5093551;28;19923;-84
2022/01/09 08:21:29;;;;;;;;;;;;;;;;;;5093792;28;19920;-84
2022/01/09 08:23:55;;;;;;;;;;;;;;;;;;5093202;28;20003;-84
2022/01/09 08:26:20;;;;;;;;;;;;;;;;;;5082756;28;20035;-83
2022/01/09 08:28:48;;;;;;;;;;;;;;;;;;5083883;28;20021;-84
2022/01/09 08:31:17;;;;;;;;;;;;;;;;;;5078242;28;20406;-85
2022/01/09 08:33:43;;;;;;;;;;;;;;;;;;5063816;28;20379;-84
2022/01/09 08:36:09;;;;;;;;;;;;;;;;;;5079554;28;20004;-84
2022/01/09 08:38:34;;;;;;;;;;;;;;;;;;5088552;28;20010;-84
2022/01/09 08:41:00;;;;;;;;;;;;;;;;;;5079731;28;20073;-85
2022/01/09 08:43:26;;;;;;;;;;;;;;;;;;5079038;28;19920;-83
2022/01/09 08:45:51;;;;;;;;;;;;;;;;;;5081254;28;20021;-85
2022/01/09 08:48:17;;;;;;;;;;;;;;;;;;5077940;28;19927;-84
2022/01/09 08:50:43;;;;;;;;;;;;;;;;;;5078463;28;19971;-86
2022/01/09 08:53:08;;;;;;;;;;;;;;;;;;5081754;28;19951;-84
2022/01/09 08:55:34;;;;;;;;;;;;;;;;;;5077275;28;19943;-85
2022/01/09 08:57:59;;;;;;;;;;;;;;;;;;5078663;28;19965;-83
2022/01/09 09:00:25;;;;;;;;;;;;;;;;;;5078640;28;19928;-84
2022/01/09 09:02:51;;;;;;;;;;;;;;;;;;5079352;28;19927;-83
2022/01/09 09:05:16;;;;;;;;;;;;;;;;;;5070035;28;19989;-84
2022/01/09 09:07:42;;;;;;;;;;;;;;;;;;5077147;28;20881;-84
2022/01/09 09:10:07;;;;;;;;;;;;;;;;;;5084127;28;20329;-84
2022/01/09 09:12:33;;;;;;;;;;;;;;;;;;5080779;28;20007;-84
2022/01/09 09:15:03;;;;;;;;;;;;;;;;;;5079963;28;19931;-83
2022/01/09 09:17:29;;;;;;;;;;;;;;;;;;5079137;28;19924;-83
2022/01/09 09:19:55;;;;;;;;;;;;;;;;;;5084790;28;19930;-84
2022/01/09 09:22:20;;;;;;;;;;;;;;;;;;5076983;28;19971;-84
2022/01/09 09:24:46;;;;;;;;;;;;;;;;;;5078367;28;20031;-85
2022/01/09 09:27:11;;;;;;;;;;;;;;;;;;5078131;28;20709;-84
2022/01/09 09:29:36;;;;;;;;;;;;;;;;;;5076668;28;20402;-83
2022/01/09 09:32:02;;;;;;;;;;;;;;;;;;5078307;28;19924;-83
2022/01/09 09:34:28;;;;;;;;;;;;;;;;;;5083820;28;19916;-84
2022/01/09 09:36:53;;;;;;;;;;;;;;;;;;5081883;28;20383;-87
2022/01/09 09:39:19;;;;;;;;;;;;;;;;;;5083732;28;19920;-87
2022/01/09 09:41:44;;;;;;;;;;;;;;;;;;5079858;28;19927;-94
2022/01/09 09:44:10;;;;;;;;;;;;;;;;;;5075944;28;21168;-87
2022/01/09 09:46:36;;;;;;;;;;;;;;;;;;5086934;28;19920;-86
2022/01/09 09:49:01;;;;;;;;;;;;;;;;;;5087698;28;19921;-87
2022/01/09 09:51:29;;;;;;;;;;;;;;;;;;5088434;28;19943;-87
2022/01/09 09:53:55;;;;;;;;;;;;;;;;;;5090676;28;19921;-87
2022/01/09 09:56:20;;;;;;;;;;;;;;;;;;5089267;28;19927;-91
2022/01/09 09:58:48;;;;;;;;;;;;;;;;;;5095162;28;19920;-90
2022/01/09 10:01:24;;;;;;;;;;;;;;;;;;5096808;28;19920;-89
2022/01/09 10:03:54;;;;;;;;;;;;;;;;;;5093905;28;19916;-87
2022/01/09 10:06:36;;;;;;;;;;;;;;;;;;5095809;28;20371;-88
2022/01/09 10:09:13;;;;;;;;;;;;;;;;;;5098324;28;19912;-84
2022/01/09 10:11:45;;;;;;;;;;;;;;;;;;5097382;28;19920;-84
2022/01/09 10:14:20;;;;;;;;;;;;;;;;;;5096584;28;19912;-84
2022/01/09 10:17:04;;;;;;;;;;;;;;;;;;5096651;28;19916;-84
2022/01/09 10:19:45;;;;;;;;;;;;;;;;;;5078476;28;19912;-84
2022/01/09 10:22:24;;;;;;;;;;;;;;;;;;5096656;28;19927;-84
2022/01/09 10:24:49;;;;;;;;;;;;;;;;;;5096680;28;20337;-85
2022/01/09 10:27:27;;;;;;;;;;;;;;;;;;5081813;28;20003;-84
2022/01/09 10:29:54;;;;;;;;;;;;;;;;;;5097993;28;19920;-86
2022/01/09 10:32:20;;;;;;;;;;;;;;;;;;5097062;28;19961;-81
2022/01/09 10:35:03;;;;;;;;;;;;;;;;;;5096453;28;19927;-85
2022/01/09 10:37:28;;;;;;;;;;;;;;;;;;5096223;28;19916;-86
2022/01/09 10:39:57;;;;;;;;;;;;;;;;;;5096070;28;20370;-84
2022/01/09 10:42:22;;;;;;;;;;;;;;;;;;5096027;28;19929;-84
2022/01/09 10:44:48;;;;;;;;;;;;;;;;;;5095988;28;20376;-85
2022/01/09 10:47:16;;;;;;;;;;;;;;;;;;5096083;28;20310;-85
2022/01/09 10:49:43;;;;;;;;;;;;;;;;;;5096006;28;20372;-85
2022/01/09 10:52:15;;;;;;;;;;;;;;;;;;5095828;28;19920;-86
2022/01/09 10:54:42;;;;;;;;;;;;;;;;;;5094824;28;19924;-85
2022/01/09 10:57:11;;;;;;;;;;;;;;;;;;5093984;28;19923;-83
2022/01/09 10:59:37;;;;;;;;;;;;;;;;;;5093783;28;19928;-84
2022/01/09 11:02:03;;;;;;;;;;;;;;;;;;5093986;28;19939;-87
2022/01/09 11:04:29;;;;;;;;;;;;;;;;;;5094185;28;19956;-83
2022/01/09 11:06:55;;;;;;;;;;;;;;;;;;5094366;28;19946;-85
2022/01/09 11:09:22;;;;;;;;;;;;;;;;;;5093197;28;19995;-84
2022/01/09 11:11:48;;;;;;;;;;;;;;;;;;5093697;28;20398;-83
2022/01/09 11:14:19;;;;;;;;;;;;;;;;;;5094412;28;19920;-88
2022/01/09 11:16:52;;;;;;;;;;;;;;;;;;5077474;28;19951;-80
2022/01/09 11:19:18;;;;;;;;;;;;;;;;;;5093749;28;19927;-86
2022/01/09 11:21:45;;;;;;;;;;;;;;;;;;5075334;28;19980;-84
2022/01/09 11:24:11;;;;;;;;;;;;;;;;;;5075555;28;19970;-84
2022/01/09 11:26:44;;;;;;;;;;;;;;;;;;5094844;28;20398;-85
2022/01/09 11:29:14;;;;;;;;;;;;;;;;;;5095194;28;19912;-82
2022/01/09 11:31:51;;;;;;;;;;;;;;;;;;5095355;28;20388;-81
2022/01/09 11:34:29;;;;;;;;;;;;;;;;;;5094724;28;19916;-84
2022/01/09 11:37:05;;;;;;;;;;;;;;;;;;5092348;28;20417;-86
2022/01/09 11:39:35;;;;;;;;;;;;;;;;;;5094109;28;19912;-83
2022/01/09 11:42:05;;;;;;;;;;;;;;;;;;5094051;28;20028;-83
2022/01/09 11:44:31;;;;;;;;;;;;;;;;;;5093841;28;19916;-85
2022/01/09 11:46:58;;;;;;;;;;;;;;;;;;5093981;28;19927;-85
2022/01/09 11:49:24;;;;;;;;;;;;;;;;;;5094035;28;20274;-86
2022/01/09 11:51:50;;;;;;;;;;;;;;;;;;5093213;28;20014;-86
2022/01/09 11:54:17;;;;;;;;;;;;;;;;;;5085723;28;19930;-90
2022/01/09 11:56:42;;;;;;;;;;;;;;;;;;5074514;28;19913;-84
2022/01/09 11:59:24;;;;;;;;;;;;;;;;;;5073365;28;19966;-85
2022/01/09 12:01:51;;;;;;;;;;;;;;;;;;5073974;28;19916;-84
2022/01/09 12:04:38;;;;;;;;;;;;;;;;;;5073335;28;19967;-84
2022/01/09 12:07:11;;;;;;;;;;;;;;;;;;5092013;28;19920;-85
2022/01/09 12:09:36;;;;;;;;;;;;;;;;;;5093256;28;19920;-84
2022/01/09 12:12:06;;;;;;;;;;;;;;;;;;5092654;28;19942;-86
2022/01/09 12:14:56;;;;;;;;;;;;;;;;;;5092599;28;19920;-85
2022/01/09 12:17:22;;;;;;;;;;;;;;;;;;5091998;28;19916;-86
2022/01/09 12:19:54;;;;;;;;;;;;;;;;;;5074211;28;19927;-85
2022/01/09 12:22:40;;;;;;;;;;;;;;;;;;5093146;28;19916;-85
2022/01/09 12:25:06;;;;;;;;;;;;;;;;;;5092988;28;20014;-86
2022/01/09 12:27:42;;;;;;;;;;;;;;;;;;5093224;28;19916;-85
2022/01/09 12:30:08;;;;;;;;;;;;;;;;;;5093425;28;20034;-86
2022/01/09 12:32:38;;;;;;;;;;;;;;;;;;5092995;28;19926;-88
2022/01/09 12:35:12;;;;;;;;;;;;;;;;;;5090691;28;19920;-84
2022/01/09 12:37:43;;;;;;;;;;;;;;;;;;5091225;28;20268;-85
2022/01/09 12:40:10;;;;;;;;;;;;;;;;;;5091419;28;19930;-87
2022/01/09 12:42:35;;;;;;;;;;;;;;;;;;5089456;28;20404;-86
2022/01/09 12:45:01;;;;;;;;;;;;;;;;;;5091218;28;19951;-80
2022/01/09 12:47:37;;;;;;;;;;;;;;;;;;5091951;28;20375;-78
2022/01/09 12:50:03;;;;;;;;;;;;;;;;;;5091182;28;19994;-80
2022/01/09 12:52:28;;;;;;;;;;;;;;;;;;5092142;28;19920;-80
2022/01/09 12:55:06;;;;;;;;;;;;;;;;;;5092234;28;19928;-81
2022/01/09 12:57:51;;;;;;;;;;;;;;;;;;5077935;28;19943;-79
2022/01/09 13:00:16;;;;;;;;;;;;;;;;;;5089481;28;19920;-79
2022/01/09 13:02:50;;;;;;;;;;;;;;;;;;5090402;28;20399;-80
2022/01/09 13:05:20;;;;;;;;;;;;;;;;;;5088626;28;20547;-79
2022/01/09 13:07:45;;;;;;;;;;;;;;;;;;5090432;28;20389;-79
2022/01/09 13:10:15;;;;;;;;;;;;;;;;;;5091110;28;20030;-80
2022/01/09 13:12:57;;;;;;;;;;;;;;;;;;5090132;28;19920;-79
2022/01/09 13:15:36;;;;;;;;;;;;;;;;;;5091774;28;19920;-80
2022/01/09 13:18:02;;;;;;;;;;;;;;;;;;5091705;28;19920;-78
2022/01/09 13:20:28;;;;;;;;;;;;;;;;;;5092158;28;19963;-79
2022/01/09 13:23:06;;;;;;;;;;;;;;;;;;5091876;28;19967;-79
2022/01/09 13:25:42;;;;;;;;;;;;;;;;;;5089774;28;19967;-80
2022/01/09 13:28:16;;;;;;;;;;;;;;;;;;5091706;28;19928;-78
2022/01/09 13:30:41;;;;;;;;;;;;;;;;;;5092556;28;20275;-81
2022/01/09 13:33:07;;;;;;;;;;;;;;;;;;5094727;28;19920;-78
2022/01/09 13:35:32;;;;;;;;;;;;;;;;;;5096314;28;19920;-80
2022/01/09 13:37:58;;;;;;;;;;;;;;;;;;5087937;28;20436;-80
2022/01/09 13:40:23;;;;;;;;;;;;;;;;;;5095942;28;19924;-78
2022/01/09 13:42:49;;;;;;;;;;;;;;;;;;5096078;28;19961;-80
2022/01/09 13:45:18;;;;;;;;;;;;;;;;;;5096308;28;20291;-80
2022/01/09 13:47:48;;;;;;;;;;;;;;;;;;5095599;28;19937;-81
2022/01/09 13:50:15;;;;;;;;;;;;;;;;;;5095886;28;19916;-81
2022/01/09 13:52:40;;;;;;;;;;;;;;;;;;5095798;28;20432;-86
2022/01/09 13:55:08;;;;;;;;;;;;;;;;;;5095878;28;19952;-80
2022/01/09 13:57:53;;;;;;;;;;;;;;;;;;5096398;28;20279;-80
2022/01/09 14:00:21;;;;;;;;;;;;;;;;;;5095938;28;19927;-80
2022/01/09 14:02:48;;;;;;;;;;;;;;;;;;5095943;28;20430;-80
2022/01/09 14:05:15;;;;;;;;;;;;;;;;;;5095364;28;19926;-82
2022/01/09 14:07:48;;;;;;;;;;;;;;;;;;5095551;28;19920;-83
2022/01/09 14:10:13;;;;;;;;;;;;;;;;;;5095300;28;20391;-82
2022/01/09 14:12:39;;;;;;;;;;;;;;;;;;5095198;28;19930;-84
2022/01/09 14:15:15;;;;;;;;;;;;;;;;;;5095157;28;19916;-82
2022/01/09 14:17:44;;;;;;;;;;;;;;;;;;5095707;28;19959;-79
2022/01/09 14:20:12;;;;;;;;;;;;;;;;;;5095601;28;19916;-79
2022/01/09 14:23:01;;;;;;;;;;;;;;;;;;5095784;28;20024;-78
2022/01/09 14:25:27;;;;;;;;;;;;;;;;;;5087750;28;19920;-79
2022/01/09 14:27:53;;;;;;;;;;;;;;;;;;5095670;28;19916;-78
2022/01/09 14:30:24;;;;;;;;;;;;;;;;;;5096251;28;20382;-78
2022/01/09 14:33:05;;;;;;;;;;;;;;;;;;5096294;28;19916;-78
2022/01/09 14:35:33;;;;;;;;;;;;;;;;;;5096288;28;19955;-78
2022/01/09 14:38:00;;;;;;;;;;;;;;;;;;5096157;28;19916;-78
2022/01/09 14:40:26;;;;;;;;;;;;;;;;;;5096072;28;19916;-79
2022/01/09 14:42:51;;;;;;;;;;;;;;;;;;5095876;28;19961;-79
2022/01/09 14:45:18;;;;;;;;;;;;;;;;;;5095979;28;20329;-78
2022/01/09 14:47:44;;;;;;;;;;;;;;;;;;5077812;28;19916;-78
2022/01/09 14:50:09;;;;;;;;;;;;;;;;;;5077679;28;19916;-78
2022/01/09 14:52:35;;;;;;;;;;;;;;;;;;5095871;28;19916;-78
2022/01/09 14:55:00;;;;;;;;;;;;;;;;;;5095616;28;19920;-78
2022/01/09 14:57:26;;;;;;;;;;;;;;;;;;5094494;28;19924;-78
2022/01/09 14:59:52;;;;;;;;;;;;;;;;;;5094062;28;19928;-78
2022/01/09 15:02:17;;;;;;;;;;;;;;;;;;5095122;28;19920;-78
2022/01/09 15:04:42;;;;;;;;;;;;;;;;;;5094327;28;20001;-78
2022/01/09 15:07:08;;;;;;;;;;;;;;;;;;5095271;28;20020;-79
2022/01/09 15:09:33;;;;;;;;;;;;;;;;;;5094149;28;19954;-79
2022/01/09 15:11:59;;;;;;;;;;;;;;;;;;5094683;28;19952;-78
2022/01/09 15:14:25;;;;;;;;;;;;;;;;;;5094822;28;19928;-78
2022/01/09 15:16:51;;;;;;;;;;;;;;;;;;5095128;28;19919;-78
2022/01/09 15:19:16;;;;;;;;;;;;;;;;;;5095390;28;19916;-78
2022/01/09 15:21:42;;;;;;;;;;;;;;;;;;5095773;28;19969;-78
2022/01/09 15:24:07;;;;;;;;;;;;;;;;;;5095216;28;19931;-78
2022/01/09 15:26:33;;;;;;;;;;;;;;;;;;5096020;28;19916;-78
2022/01/09 15:28:58;;;;;;;;;;;;;;;;;;5095653;28;19928;-78
2022/01/09 15:31:24;;;;;;;;;;;;;;;;;;5095219;28;19955;-78
2022/01/09 15:33:49;;;;;;;;;;;;;;;;;;5095015;28;19923;-79
2022/01/09 15:36:16;;;;;;;;;;;;;;;;;;5095008;28;19962;-79
2022/01/09 15:38:41;;;;;;;;;;;;;;;;;;5094505;28;20070;-78
2022/01/09 15:41:07;;;;;;;;;;;;;;;;;;5095046;28;20033;-79
2022/01/09 15:43:33;;;;;;;;;;;;;;;;;;5094533;28;20355;-79
2022/01/09 15:45:59;;;;;;;;;;;;;;;;;;5094208;28;19920;-80
2022/01/09 15:48:25;;;;;;;;;;;;;;;;;;5094831;28;19919;-80
2022/01/09 15:50:51;;;;;;;;;;;;;;;;;;5094910;28;20009;-80
2022/01/09 15:53:16;;;;;;;;;;;;;;;;;;5094757;28;19951;-81
2022/01/09 15:55:42;;;;;;;;;;;;;;;;;;5093904;28;19963;-81
2022/01/09 15:58:08;;;;;;;;;;;;;;;;;;5094637;28;19924;-81
2022/01/09 16:00:34;;;;;;;;;;;;;;;;;;5094468;28;19926;-80
2022/01/09 16:02:59;;;;;;;;;;;;;;;;;;5094571;28;19916;-80
2022/01/09 16:05:25;;;;;;;;;;;;;;;;;;5094304;28;20279;-79
2022/01/09 16:07:50;;;;;;;;;;;;;;;;;;5094332;28;19916;-79
2022/01/09 16:10:16;;;;;;;;;;;;;;;;;;5094562;28;20364;-78
2022/01/09 16:12:45;;;;;;;;;;;;;;;;;;5094326;28;19920;-79
2022/01/09 16:15:11;;;;;;;;;;;;;;;;;;5095699;28;19966;-79
2022/01/09 16:17:36;;;;;;;;;;;;;;;;;;5095069;28;19920;-78
2022/01/09 16:20:03;;;;;;;;;;;;;;;;;;5094026;28;20264;-79
2022/01/09 16:22:28;;;;;;;;;;;;;;;;;;5094232;28;19916;-79
2022/01/09 16:24:54;;;;;;;;;;;;;;;;;;5094050;28;19916;-79
2022/01/09 16:27:19;;;;;;;;;;;;;;;;;;5094216;28;19923;-79
2022/01/09 16:29:45;;;;;;;;;;;;;;;;;;5094151;28;19927;-79
2022/01/09 16:32:11;;;;;;;;;;;;;;;;;;5093972;28;19923;-79
2022/01/09 16:34:37;;;;;;;;;;;;;;;;;;5094245;28;19920;-80
2022/01/09 16:37:03;;;;;;;;;;;;;;;;;;5076239;28;19938;-79
2022/01/09 16:39:28;;;;;;;;;;;;;;;;;;5075857;28;19920;-79
2022/01/09 16:41:54;;;;;;;;;;;;;;;;;;5093406;28;19927;-79
2022/01/09 16:44:19;;;;;;;;;;;;;;;;;;5094020;28;20015;-79